Weather at Almafuerte / Transener S.A. Heliport

Public forecast

Using degrees Celsius for public forecast. Weather courtesy of forecast.io.

Closest aviation weather report (METAR) to Almafuerte / Transener S.A. Heliport

Report is more than 6 hours old.

Closest report is Valle Del Conlara International Airport, 45.6 nm (84.4 km) WSW. Retrieved 2021/05/06 13:30 UTC (7 months ago):

SAOS 061330Z 00000KT 8000 08/08 Q1028

Closest aviation forecast (TAF) to Almafuerte / Transener S.A. Heliport

Forecast is more than 12 hours old.

Closest forecast is Area De Material Airport, 53.0 nm (98.2 km) S. Retrieved 2021-11-27 00:25 UTC (2 days ago):

TAF SAOC 262300Z 2700/2724 05015KT CAVOK TX29/2718Z TN17/2709Z BECMG 2711/2714 36020KT 9999 SCT035 FEW040TCU BECMG 2716/2719 20020KT 5000 RASH BKN025 BKN030 FEW040CB